Weather at Abbotsford Airport

Public forecast

Using degrees Celsius for public forecast. Weather courtesy of forecast.io.

Current aviation weather report (METAR) for Abbotsford Airport

Retrieved 2020/11/27 21:00 UTC (41 minutes ago):

CYXX 272100Z 19007KT 25SM FEW030 FEW050 FEW180 SCT230 BKN260 12/05 A3015 RMK CU1SC1AC1CI2CC3 CU TR CONTRAILS SLP212

Aviation forecast (TAF) for Abbotsford Airport

Retrieved 2020/11/27 18:45 UTC (3 hours ago):

TAF CYXX 271741Z 2718/2818 20010G20KT P6SM FEW020 BKN050 BKN230 FM280200 20015G25KT P6SM -RA SCT012 OVC030 TEMPO 2802/2806 3SM SHRA BR OVC012 FM280600 18012G22KT P6SM FEW005 SCT012 BKN030 TEMPO 2806/2812 3SM -RA BR SCT005 OVC012 FM281200 18005KT P6SM SCT005 BKN020 TEMPO 2812/2818 BKN005 RMK NXT FCST BY 280000Z